Time;durP1;ratioP1;P1;durP2;ratioP2;P2;SDS_P1;SDS_P2;PMS_P1;PMS_P2;Temp;Humidity;BMP_temperature;BMP_pressure;BME280_temperature;BME280_humidity;BME280_pressure;Samples;Min_cycle;Max_cycle;Signal;HPM_P1;HPM_P2
2022/04/29 00:00:54;;;;;;;14.60;7.78;;;;;;;9.50;68.82;102927.59;5011442;28;20038;-58
2022/04/29 00:03:21;;;;;;;16.42;7.63;;;;;;;9.50;68.59;102935.56;5013627;28;20042;-58
2022/04/29 00:05:46;;;;;;;18.08;8.30;;;;;;;9.42;69.01;102922.81;5019930;28;20043;-58
2022/04/29 00:08:13;;;;;;;14.65;7.72;;;;;;;9.38;68.92;102925.78;5016633;28;20458;-59
2022/04/29 00:10:40;;;;;;;15.73;7.95;;;;;;;9.22;69.80;102929.44;5012280;28;20361;-59
2022/04/29 00:13:08;;;;;;;18.23;7.85;;;;;;;9.31;69.43;102920.03;5018023;28;20057;-58
2022/04/29 00:15:33;;;;;;;16.92;8.05;;;;;;;9.27;69.65;102922.03;5022906;28;20064;-58
2022/04/29 00:17:59;;;;;;;13.57;7.50;;;;;;;9.30;69.21;102915.69;5016284;28;20622;-58
2022/04/29 00:20:25;;;;;;;18.27;8.50;;;;;;;9.19;70.05;102921.72;5013774;28;20041;-59
2022/04/29 00:22:50;;;;;;;16.40;8.20;;;;;;;9.19;70.58;102916.41;5020856;28;20054;-58
2022/04/29 00:25:16;;;;;;;23.80;8.55;;;;;;;9.06;70.28;102923.44;5022772;28;20038;-58
2022/04/29 00:27:42;;;;;;;16.73;8.15;;;;;;;9.12;70.51;102920.38;5015192;28;20038;-58
2022/04/29 00:30:11;;;;;;;14.43;7.80;;;;;;;9.14;70.05;102914.03;5017480;28;20030;-58
2022/04/29 00:32:39;;;;;;;18.02;8.10;;;;;;;9.09;70.30;102905.56;5012809;28;20577;-58
2022/04/29 00:35:08;;;;;;;17.77;8.27;;;;;;;9.11;70.05;102918.69;5011875;28;20112;-58
2022/04/29 00:37:45;;;;;;;17.52;7.97;;;;;;;9.04;69.83;102901.53;5011926;28;20110;-57
2022/04/29 00:40:15;;;;;;;14.98;7.97;;;;;;;9.06;70.43;102912.84;5018456;28;20026;-58
2022/04/29 00:42:40;;;;;;;16.77;8.45;;;;;;;9.04;70.31;102906.81;5011948;28;20022;-58
2022/04/29 00:45:06;;;;;;;18.88;8.52;;;;;;;9.00;69.88;102907.03;5027089;28;20033;-58
2022/04/29 00:47:31;;;;;;;17.92;8.55;;;;;;;8.96;70.82;102905.53;5014445;28;20049;-58
2022/04/29 00:49:57;;;;;;;18.55;8.63;;;;;;;8.89;70.97;102904.22;5018119;28;20037;-58
2022/04/29 00:52:24;;;;;;;19.65;8.57;;;;;;;8.71;70.62;102896.53;5012430;28;20042;-58
2022/04/29 00:54:59;;;;;;;15.18;8.23;;;;;;;8.78;71.15;102901.44;5009195;28;20029;-59
2022/04/29 00:57:30;;;;;;;17.90;8.57;;;;;;;8.72;71.28;102902.66;5020466;28;20037;-59
2022/04/29 01:00:08;;;;;;;17.60;9.05;;;;;;;8.74;70.95;102895.50;5017283;28;20041;-59
2022/04/29 01:02:37;;;;;;;17.23;8.80;;;;;;;8.76;70.80;102901.53;5012523;28;20030;-58
2022/04/29 01:05:11;;;;;;;15.60;8.07;;;;;;;8.71;71.25;102907.13;5015285;28;20449;-58
2022/04/29 01:07:38;;;;;;;17.15;7.95;;;;;;;8.61;71.38;102908.63;5015875;28;20029;-59
2022/04/29 01:10:05;;;;;;;17.33;8.32;;;;;;;8.57;71.50;102899.19;5013926;28;20094;-58
2022/04/29 01:12:34;;;;;;;17.05;8.13;;;;;;;8.64;71.11;102897.00;5015655;28;20100;-59
2022/04/29 01:15:03;;;;;;;18.60;8.20;;;;;;;8.48;71.28;102896.16;5011836;28;20136;-58
2022/04/29 01:17:30;;;;;;;16.63;8.27;;;;;;;8.57;71.66;102891.25;5014017;28;20049;-58
2022/04/29 01:19:55;;;;;;;17.40;8.30;;;;;;;8.52;70.89;102890.69;5013340;28;20026;-58
2022/04/29 01:22:20;;;;;;;19.23;8.05;;;;;;;8.50;70.86;102882.84;5010941;28;20037;-58
2022/04/29 01:24:50;;;;;;;14.48;8.20;;;;;;;8.41;71.97;102878.13;5013633;28;20049;-58
2022/04/29 01:27:15;;;;;;;14.82;7.85;;;;;;;8.36;71.96;102875.78;5017622;28;20036;-58
2022/04/29 01:29:42;;;;;;;15.23;8.45;;;;;;;8.36;71.46;102865.22;5012322;28;20029;-58
2022/04/29 01:32:09;;;;;;;18.73;8.43;;;;;;;8.27;71.98;102858.72;5012981;28;20049;-59
2022/04/29 01:34:35;;;;;;;15.50;8.18;;;;;;;8.30;71.69;102865.59;5011092;28;20395;-59
2022/04/29 01:37:00;;;;;;;15.40;8.35;;;;;;;8.23;71.91;102864.28;5005979;28;20037;-58
2022/04/29 01:39:25;;;;;;;19.05;9.00;;;;;;;8.26;71.54;102864.06;5011240;28;20620;-57
2022/04/29 01:41:51;;;;;;;16.92;7.82;;;;;;;8.11;71.56;102861.47;5014357;28;20042;-58
2022/04/29 01:44:17;;;;;;;16.05;8.00;;;;;;;8.06;72.42;102866.19;5015035;28;20045;-58
2022/04/29 01:46:43;;;;;;;18.90;8.63;;;;;;;8.07;71.71;102854.66;5017156;28;20034;-58
2022/04/29 01:49:08;;;;;;;16.50;8.43;;;;;;;7.92;72.31;102859.97;5009585;28;20084;-59
2022/04/29 01:51:33;;;;;;;19.13;9.20;;;;;;;7.91;73.22;102858.22;5020047;28;20357;-58
2022/04/29 01:53:58;;;;;;;17.40;8.60;;;;;;;7.91;72.96;102855.59;5010727;28;20045;-58
2022/04/29 01:56:32;;;;;;;17.88;8.98;;;;;;;7.86;73.45;102860.34;5011881;28;20029;-59
2022/04/29 01:59:01;;;;;;;17.92;8.20;;;;;;;7.92;72.88;102862.59;5007283;28;20030;-58
2022/04/29 02:01:27;;;;;;;14.82;8.65;;;;;;;7.92;72.45;102857.31;5007244;28;20564;-59
2022/04/29 02:03:52;;;;;;;17.20;8.48;;;;;;;7.96;72.71;102862.41;5009913;28;20030;-59
2022/04/29 02:06:18;;;;;;;14.85;8.55;;;;;;;7.91;72.92;102860.88;5014601;28;20021;-58
2022/04/29 02:08:44;;;;;;;17.98;8.98;;;;;;;7.91;72.92;102852.94;5009201;28;20117;-58
2022/04/29 02:11:10;;;;;;;18.10;8.70;;;;;;;7.95;72.92;102861.56;5013817;28;20029;-59
2022/04/29 02:13:35;;;;;;;20.10;9.13;;;;;;;7.82;72.90;102861.44;5012834;28;20480;-58
2022/04/29 02:16:00;;;;;;;19.23;9.00;;;;;;;7.82;73.63;102866.72;5011882;28;20040;-58
2022/04/29 02:18:26;;;;;;;16.08;8.82;;;;;;;7.89;73.46;102857.50;5011020;28;20061;-59
2022/04/29 02:20:51;;;;;;;15.45;8.85;;;;;;;7.79;73.28;102858.97;5016142;28;20115;-58
2022/04/29 02:23:16;;;;;;;17.25;8.90;;;;;;;7.83;73.53;102857.88;5014029;28;20098;-59
2022/04/29 02:25:41;;;;;;;18.05;8.70;;;;;;;7.80;73.18;102853.63;5014579;28;20043;-58
2022/04/29 02:28:07;;;;;;;20.77;9.32;;;;;;;7.82;73.17;102856.16;5017249;28;20029;-58
2022/04/29 02:30:33;;;;;;;19.52;9.13;;;;;;;7.75;73.71;102844.28;5005280;28;20052;-58
2022/04/29 02:32:58;;;;;;;18.08;9.15;;;;;;;7.72;73.22;102849.75;5020070;28;20033;-58
2022/04/29 02:35:24;;;;;;;18.52;9.02;;;;;;;7.73;73.39;102851.44;5008673;28;20033;-58
2022/04/29 02:37:49;;;;;;;14.00;8.93;;;;;;;7.65;73.70;102851.91;5011938;28;20056;-58
2022/04/29 02:40:15;;;;;;;19.13;9.25;;;;;;;7.63;73.70;102844.09;5018283;28;20579;-58
2022/04/29 02:42:40;;;;;;;21.25;9.88;;;;;;;7.63;73.67;102846.72;5012605;28;20030;-58
2022/04/29 02:45:06;;;;;;;19.02;9.40;;;;;;;7.62;74.04;102845.03;5016238;28;20045;-58
2022/04/29 02:47:31;;;;;;;17.92;9.00;;;;;;;7.67;73.86;102850.88;5012528;28;20034;-58
2022/04/29 02:49:58;;;;;;;18.38;9.50;;;;;;;7.67;73.75;102848.25;5014998;28;20045;-60
2022/04/29 02:52:23;;;;;;;17.02;9.00;;;;;;;7.64;74.04;102850.19;5014762;28;20026;-58
2022/04/29 02:54:49;;;;;;;18.08;9.48;;;;;;;7.58;73.73;102858.47;5019165;28;20511;-58
2022/04/29 02:57:14;;;;;;;18.92;9.30;;;;;;;7.60;74.09;102846.91;5020801;28;20025;-58
2022/04/29 02:59:40;;;;;;;17.45;9.20;;;;;;;7.53;74.16;102842.94;5009468;28;20060;-59
2022/04/29 03:02:05;;;;;;;17.73;9.50;;;;;;;7.49;74.47;102844.03;5008967;28;20038;-58
2022/04/29 03:04:30;;;;;;;16.50;9.77;;;;;;;7.53;74.18;102846.44;5025691;28;20044;-59
2022/04/29 03:06:56;;;;;;;19.17;9.68;;;;;;;7.51;74.17;102832.44;5017563;28;20374;-59
2022/04/29 03:09:21;;;;;;;17.92;9.25;;;;;;;7.54;74.22;102834.91;5016933;28;20041;-59
2022/04/29 03:11:48;;;;;;;19.23;9.75;;;;;;;7.55;73.67;102822.56;5010995;28;20029;-59
2022/04/29 03:14:13;;;;;;;17.75;9.52;;;;;;;7.51;74.63;102816.59;5015777;28;20634;-59
2022/04/29 03:16:38;;;;;;;18.58;10.02;;;;;;;7.43;74.62;102818.88;5019854;28;20034;-59
2022/04/29 03:19:04;;;;;;;19.95;9.65;;;;;;;7.48;74.57;102816.81;5017191;28;20052;-59
2022/04/29 03:21:29;;;;;;;18.60;9.48;;;;;;;7.44;74.23;102810.00;5010615;28;20034;-58
2022/04/29 03:23:55;;;;;;;18.65;10.15;;;;;;;7.32;75.28;102806.31;5012314;28;20049;-58
2022/04/29 03:26:20;;;;;;;18.67;9.98;;;;;;;7.34;75.72;102815.00;5009890;28;20104;-59
2022/04/29 03:28:46;;;;;;;18.52;10.30;;;;;;;7.24;75.33;102821.75;5009790;28;20034;-58
2022/04/29 03:31:11;;;;;;;20.33;10.65;;;;;;;7.17;75.90;102823.06;5008776;28;20384;-59
2022/04/29 03:33:36;;;;;;;21.30;10.82;;;;;;;7.11;76.33;102829.56;5012085;28;20037;-59
2022/04/29 03:36:02;;;;;;;20.45;10.27;;;;;;;7.19;76.19;102832.56;5017585;28;20030;-58
2022/04/29 03:38:28;;;;;;;23.58;11.25;;;;;;;7.08;76.46;102835.00;5009615;28;20088;-58
2022/04/29 03:40:53;;;;;;;17.40;10.68;;;;;;;7.06;76.63;102837.72;5009259;28;20539;-58
2022/04/29 03:43:20;;;;;;;18.92;10.10;;;;;;;7.17;76.27;102844.16;5020033;28;20044;-58
2022/04/29 03:45:46;;;;;;;19.27;10.15;;;;;;;7.16;76.08;102842.47;5007625;28;20068;-58
2022/04/29 03:48:12;;;;;;;19.48;10.52;;;;;;;7.02;76.53;102825.66;5009261;28;20120;-59
2022/04/29 03:50:38;;;;;;;19.00;10.23;;;;;;;7.01;76.06;102816.03;5015343;28;20486;-59
2022/04/29 03:53:04;;;;;;;19.17;10.70;;;;;;;7.03;76.65;102824.72;5012157;28;20030;-59
2022/04/29 03:55:32;;;;;;;20.23;10.63;;;;;;;7.02;77.08;102820.38;5007262;28;20080;-58
2022/04/29 03:57:58;;;;;;;20.60;11.43;;;;;;;7.08;76.07;102827.94;5011012;28;20030;-58
2022/04/29 04:00:26;;;;;;;19.77;10.82;;;;;;;6.96;76.05;102831.28;5009514;28;21090;-59
2022/04/29 04:02:52;;;;;;;20.05;11.18;;;;;;;7.02;76.57;102830.94;5009526;28;20045;-57
2022/04/29 04:05:18;;;;;;;21.48;11.18;;;;;;;6.98;76.52;102826.75;5004597;28;20018;-58
2022/04/29 04:07:45;;;;;;;22.17;11.35;;;;;;;7.07;76.14;102825.38;5009556;28;20117;-58
2022/04/29 04:10:11;;;;;;;21.15;11.27;;;;;;;6.92;76.97;102824.47;5011692;28;20056;-59
2022/04/29 04:12:41;;;;;;;22.25;11.13;;;;;;;7.04;76.55;102823.78;5009459;28;20041;-58
2022/04/29 04:15:08;;;;;;;20.50;11.10;;;;;;;7.01;76.60;102823.97;5005748;28;20061;-59
2022/04/29 04:17:33;;;;;;;19.35;10.85;;;;;;;7.09;76.17;102821.72;5015983;28;20025;-59
2022/04/29 04:19:58;;;;;;;18.13;11.05;;;;;;;7.10;76.58;102823.41;5016710;28;20033;-58
2022/04/29 04:22:24;;;;;;;21.33;11.80;;;;;;;7.02;76.56;102815.09;5026524;28;20034;-59
2022/04/29 04:24:49;;;;;;;27.08;11.68;;;;;;;7.07;76.66;102815.69;5010249;28;20044;-58
2022/04/29 04:27:14;;;;;;;23.83;11.77;;;;;;;7.08;76.73;102806.84;5009073;28;20037;-58
2022/04/29 04:29:40;;;;;;;20.77;11.32;;;;;;;7.05;76.85;102809.63;5014183;28;20056;-59
2022/04/29 04:32:05;;;;;;;22.70;11.95;;;;;;;6.93;76.48;102816.47;5007632;28;20021;-59
2022/04/29 04:37:15;;;;;;;22.90;12.10;;;;;;;6.86;76.47;102815.97;5020454;28;20053;-58
2022/04/29 04:39:41;;;;;;;21.05;11.90;;;;;;;6.85;77.17;102816.91;5007457;28;20037;-59
2022/04/29 04:42:07;;;;;;;28.90;12.35;;;;;;;6.81;76.93;102812.75;5008689;28;20446;-59
2022/04/29 04:44:32;;;;;;;20.45;11.88;;;;;;;6.85;77.21;102809.00;5020408;28;20049;-58
2022/04/29 04:46:57;;;;;;;22.13;12.18;;;;;;;6.88;77.64;102804.47;5011004;28;20034;-59
2022/04/29 04:49:22;;;;;;;25.20;12.43;;;;;;;6.84;77.86;102807.31;5002967;28;20033;-59
2022/04/29 04:51:48;;;;;;;20.48;11.60;;;;;;;6.93;76.95;102810.34;5007888;28;20492;-59
2022/04/29 04:54:13;;;;;;;22.70;12.73;;;;;;;6.84;77.20;102807.31;5000493;28;20073;-59
2022/04/29 04:56:38;;;;;;;24.30;12.38;;;;;;;6.93;77.70;102810.34;5019057;28;20087;-59
2022/04/29 04:59:04;;;;;;;21.65;12.32;;;;;;;6.92;76.93;102803.38;5007814;28;20030;-58
2022/04/29 05:01:29;;;;;;;23.90;12.40;;;;;;;6.83;77.39;102802.97;5007260;28;20030;-58
2022/04/29 05:03:54;;;;;;;24.70;12.10;;;;;;;6.81;77.49;102802.19;5003615;28;20030;-59
2022/04/29 05:06:20;;;;;;;23.38;12.75;;;;;;;6.86;77.34;102797.50;5000535;28;20031;-58
2022/04/29 05:08:46;;;;;;;20.55;12.27;;;;;;;6.86;77.59;102805.44;5007461;28;20417;-58
2022/04/29 05:11:11;;;;;;;25.27;12.90;;;;;;;6.85;77.34;102808.16;5010151;28;20052;-58
2022/04/29 05:13:36;;;;;;;21.42;12.75;;;;;;;6.81;77.50;102809.28;5004269;28;20030;-58
2022/04/29 05:16:02;;;;;;;21.42;12.98;;;;;;;6.81;78.17;102807.47;5008317;28;20092;-59
2022/04/29 05:18:27;;;;;;;21.15;12.57;;;;;;;6.87;77.07;102806.28;5007479;28;20071;-59
2022/04/29 05:20:53;;;;;;;24.40;13.00;;;;;;;6.88;77.14;102801.84;5018348;28;20476;-60
2022/04/29 05:23:18;;;;;;;23.77;12.55;;;;;;;6.89;77.46;102803.53;5004898;28;20046;-60
2022/04/29 05:25:43;;;;;;;25.75;13.27;;;;;;;6.84;76.77;102811.72;5001735;28;20042;-60
2022/04/29 05:28:09;;;;;;;25.98;13.32;;;;;;;6.79;77.39;102806.72;5009790;28;20044;-60
2022/04/29 05:30:34;;;;;;;26.08;13.23;;;;;;;6.85;77.66;102816.06;5004844;28;20022;-60
2022/04/29 05:33:01;;;;;;;21.13;12.80;;;;;;;6.86;77.40;102810.69;5011326;28;20034;-60
2022/04/29 05:35:27;;;;;;;23.48;12.80;;;;;;;6.94;77.51;102817.31;5005446;28;20064;-59
2022/04/29 05:37:53;;;;;;;22.58;13.63;;;;;;;6.95;77.20;102806.69;5017529;28;20061;-60
2022/04/29 05:43:02;;;;;;;20.77;13.48;;;;;;;6.99;76.86;102810.00;5008676;28;20084;-59
2022/04/29 05:45:28;;;;;;;24.27;13.70;;;;;;;6.98;76.43;102814.44;5011933;28;20062;-59
2022/04/29 05:47:53;;;;;;;23.55;13.15;;;;;;;7.03;76.67;102819.44;5015644;28;20033;-60
2022/04/29 05:50:19;;;;;;;27.05;13.27;;;;;;;7.07;76.39;102815.69;5011537;28;20040;-59
2022/04/29 05:52:44;;;;;;;25.58;13.65;;;;;;;7.12;75.66;102816.25;5028812;28;20045;-59
2022/04/29 05:55:09;;;;;;;23.92;13.30;;;;;;;7.17;75.62;102823.06;5014800;28;20034;-60
2022/04/29 05:57:34;;;;;;;25.20;13.73;;;;;;;7.14;76.21;102826.72;5013132;28;20157;-60
2022/04/29 06:00:00;;;;;;;24.75;13.27;;;;;;;7.13;75.40;102825.03;5011090;28;20349;-59
2022/04/29 06:02:28;;;;;;;23.85;13.85;;;;;;;7.15;76.17;102830.22;5011521;28;20026;-58
2022/04/29 06:04:53;;;;;;;23.90;13.63;;;;;;;7.17;76.36;102836.25;5012531;28;20108;-60
2022/04/29 06:07:19;;;;;;;27.63;13.73;;;;;;;7.18;76.01;102824.75;5010570;28;20449;-59
2022/04/29 06:09:44;;;;;;;20.08;13.07;;;;;;;7.25;75.62;102831.34;5020701;28;20041;-60
2022/04/29 06:12:10;;;;;;;26.90;13.57;;;;;;;7.21;75.40;102835.97;5017382;28;20030;-60
2022/04/29 06:14:36;;;;;;;27.30;13.60;;;;;;;7.27;76.24;102830.31;5015947;28;20025;-60
2022/04/29 06:17:01;;;;;;;24.10;13.63;;;;;;;7.33;75.17;102829.13;5011553;28;20030;-59
2022/04/29 06:19:26;;;;;;;22.52;13.85;;;;;;;7.33;76.00;102834.41;5006144;28;20021;-59
2022/04/29 06:21:52;;;;;;;24.27;13.65;;;;;;;7.39;75.16;102844.59;5011508;28;20036;-58
2022/04/29 06:24:17;;;;;;;23.75;13.18;;;;;;;7.46;74.88;102842.44;5015436;28;20049;-60
2022/04/29 06:26:42;;;;;;;24.05;13.38;;;;;;;7.52;74.30;102841.22;5012748;28;20040;-60
2022/04/29 06:29:08;;;;;;;24.70;13.68;;;;;;;7.44;74.91;102840.84;5012428;28;20053;-59
2022/04/29 06:31:33;;;;;;;24.73;12.98;;;;;;;7.48;75.48;102839.72;5017081;28;20041;-59
2022/04/29 06:33:58;;;;;;;24.95;13.60;;;;;;;7.49;74.69;102833.47;5011136;28;20025;-59
2022/04/29 06:36:24;;;;;;;24.80;13.85;;;;;;;7.54;75.09;102841.97;5012008;28;20152;-59
2022/04/29 06:38:49;;;;;;;24.27;13.32;;;;;;;7.63;74.76;102854.66;5008432;28;20030;-60
2022/04/29 06:41:14;;;;;;;25.52;13.95;;;;;;;7.63;74.69;102856.41;5010945;28;20041;-59
2022/04/29 06:43:39;;;;;;;27.35;14.15;;;;;;;7.66;74.12;102846.53;5011543;28;20042;-60
2022/04/29 06:46:05;;;;;;;24.38;13.38;;;;;;;7.69;73.82;102848.13;5008263;28;20041;-59
2022/04/29 06:48:30;;;;;;;23.92;13.77;;;;;;;7.65;74.44;102847.47;4997903;28;20501;-59
2022/04/29 06:50:55;;;;;;;26.45;14.35;;;;;;;7.64;74.03;102843.13;5005501;28;20034;-60
2022/04/29 06:53:21;;;;;;;24.00;13.85;;;;;;;7.65;73.70;102850.09;5007992;28;20120;-59
2022/04/29 06:55:47;;;;;;;27.38;14.60;;;;;;;7.70;73.98;102846.34;5014928;28;20041;-60
2022/04/29 06:58:12;;;;;;;26.70;14.60;;;;;;;7.67;74.18;102852.66;5008760;28;20582;-60
2022/04/29 07:00:40;;;;;;;23.67;14.35;;;;;;;7.77;74.19;102858.25;5011186;28;20022;-59
2022/04/29 07:03:05;;;;;;;27.30;14.68;;;;;;;7.83;74.06;102859.66;5025365;28;20041;-59
2022/04/29 07:05:31;;;;;;;23.90;14.27;;;;;;;7.88;74.09;102855.78;5001640;28;20298;-59
2022/04/29 07:07:57;;;;;;;25.60;14.93;;;;;;;7.88;74.25;102854.94;4999457;28;20428;-59
2022/04/29 07:10:23;;;;;;;26.10;14.63;;;;;;;7.87;74.89;102853.25;5000126;28;20113;-59
2022/04/29 07:12:49;;;;;;;26.45;14.40;;;;;;;7.93;73.42;102858.16;5002081;28;20098;-59
2022/04/29 07:15:15;;;;;;;28.02;14.65;;;;;;;7.91;74.05;102860.88;5001786;28;20541;-59
2022/04/29 07:17:42;;;;;;;25.38;14.73;;;;;;;7.98;75.43;102858.72;5000150;28;20030;-59
2022/04/29 07:20:09;;;;;;;28.13;14.77;;;;;;;8.01;73.59;102860.31;4997574;28;20113;-59
2022/04/29 07:22:38;;;;;;;23.50;14.63;;;;;;;8.06;73.39;102858.25;5000508;28;20117;-59
2022/04/29 07:25:04;;;;;;;28.17;14.95;;;;;;;8.18;73.58;102851.34;4999486;28;20544;-59
2022/04/29 07:27:30;;;;;;;29.80;15.82;;;;;;;8.29;73.50;102848.03;4997543;28;20057;-60
2022/04/29 07:29:55;;;;;;;27.45;14.57;;;;;;;8.40;73.05;102850.00;5010181;28;20108;-60
2022/04/29 07:32:21;;;;;;;28.92;16.10;;;;;;;8.51;73.54;102857.25;4993364;28;20065;-60
2022/04/29 07:42:58;;;;;;;23.92;14.23;;;;;;;8.68;72.73;102838.53;5000197;28;20040;-59
2022/04/29 07:45:24;;;;;;;27.17;15.13;;;;;;;8.68;72.73;102853.56;5002014;28;20022;-59
2022/04/29 07:47:50;;;;;;;28.08;15.82;;;;;;;8.71;73.59;102848.91;5015518;28;20081;-59
2022/04/29 07:50:15;;;;;;;27.98;15.35;;;;;;;8.83;72.69;102852.56;5005142;28;20034;-60
2022/04/29 07:52:41;;;;;;;28.52;15.18;;;;;;;8.95;71.81;102855.34;4998118;28;20041;-59
2022/04/29 07:55:06;;;;;;;24.33;15.25;;;;;;;9.10;71.92;102854.34;4998052;28;20030;-58
2022/04/29 07:57:32;;;;;;;26.30;14.90;;;;;;;9.23;70.51;102851.69;5012367;28;20028;-58
2022/04/29 07:59:57;;;;;;;27.48;14.50;;;;;;;9.26;70.44;102848.88;5013578;28;20061;-59
2022/04/29 08:02:22;;;;;;;26.48;15.13;;;;;;;9.34;70.77;102855.44;5008860;28;20030;-58
2022/04/29 08:04:47;;;;;;;26.10;15.05;;;;;;;9.38;70.26;102863.06;5011500;28;20042;-58
2022/04/29 08:07:13;;;;;;;30.10;15.73;;;;;;;9.32;70.47;102863.47;5004127;28;20052;-58
2022/04/29 08:09:38;;;;;;;27.38;15.30;;;;;;;9.37;70.72;102865.84;5023893;28;20065;-58
2022/04/29 08:12:05;;;;;;;27.45;15.27;;;;;;;9.40;71.43;102868.25;5004738;28;20049;-58
2022/04/29 08:14:31;;;;;;;26.48;15.43;;;;;;;9.32;70.36;102868.78;5015761;28;20461;-58
2022/04/29 08:16:57;;;;;;;29.88;15.48;;;;;;;9.28;70.71;102857.53;5017929;28;20627;-58
2022/04/29 08:19:23;;;;;;;26.67;15.52;;;;;;;9.35;70.99;102858.00;5012564;28;20088;-58
2022/04/29 08:21:49;;;;;;;29.38;15.75;;;;;;;9.38;71.02;102862.22;5013484;28;20033;-58
2022/04/29 08:24:14;;;;;;;29.08;15.63;;;;;;;9.41;70.58;102857.56;5010663;28;20456;-58
2022/04/29 08:26:40;;;;;;;28.00;15.18;;;;;;;9.57;71.66;102868.94;5003084;28;20026;-58
2022/04/29 08:29:05;;;;;;;24.58;15.18;;;;;;;9.53;70.60;102863.81;5011849;28;20377;-58
2022/04/29 08:31:30;;;;;;;28.25;16.15;;;;;;;9.48;71.13;102865.94;5013852;28;20030;-58
2022/04/29 08:33:56;;;;;;;30.88;16.23;;;;;;;9.47;71.95;102872.19;5016808;28;20029;-58
2022/04/29 08:36:21;;;;;;;26.38;15.45;;;;;;;9.51;70.13;102873.69;5025345;28;20456;-58
2022/04/29 08:38:47;;;;;;;25.83;15.30;;;;;;;9.57;71.66;102871.56;5012234;28;20050;-58
2022/04/29 08:41:12;;;;;;;26.38;15.75;;;;;;;9.55;70.79;102872.53;5017352;28;20034;-58
2022/04/29 08:43:39;;;;;;;27.38;15.90;;;;;;;9.60;70.99;102872.22;5017597;28;20037;-58
2022/04/29 08:46:06;;;;;;;31.23;16.30;;;;;;;9.51;71.51;102860.44;5014673;28;20029;-58
2022/04/29 08:48:33;;;;;;;29.08;14.90;;;;;;;9.58;70.05;102867.97;5013459;28;20057;-58
2022/04/29 08:50:59;;;;;;;29.13;15.80;;;;;;;9.60;70.31;102871.34;5014600;28;20053;-58
2022/04/29 08:53:24;;;;;;;26.02;15.40;;;;;;;9.69;70.15;102866.25;5014072;28;20073;-58
2022/04/29 08:58:37;;;;;;;30.05;15.30;;;;;;;9.81;69.14;102859.28;5010675;28;20044;-58
2022/04/29 09:01:08;;;;;;;30.70;16.63;;;;;;;9.86;70.19;102850.19;5012733;28;20064;-58
2022/04/29 09:03:34;;;;;;;27.05;15.27;;;;;;;9.96;70.45;102853.84;5014369;28;20453;-58
2022/04/29 09:06:00;;;;;;;27.55;15.02;;;;;;;9.99;68.73;102845.69;5014748;28;20034;-58
2022/04/29 09:08:25;;;;;;;26.95;15.68;;;;;;;9.99;70.07;102845.69;5014323;28;20053;-56
2022/04/29 09:10:56;;;;;;;26.60;16.83;;;;;;;10.03;69.57;102863.09;5013624;28;20049;-57
2022/04/29 09:13:27;;;;;;;28.25;15.55;;;;;;;10.00;69.21;102857.13;5010701;28;20033;-57
2022/04/29 09:15:57;;;;;;;27.23;15.30;;;;;;;10.13;70.04;102867.72;5009519;28;20033;-57
2022/04/29 09:18:37;;;;;;;28.80;15.05;;;;;;;10.15;71.27;102858.72;5005438;28;20103;-56
2022/04/29 09:21:09;;;;;;;26.45;14.95;;;;;;;10.13;70.36;102865.94;5012410;28;20115;-57
2022/04/29 09:23:45;;;;;;;26.42;15.10;;;;;;;10.17;69.83;102866.56;5013077;28;20192;-57
2022/04/29 09:26:25;;;;;;;29.08;15.00;;;;;;;10.30;70.71;102864.72;5013123;28;20037;-57
2022/04/29 09:28:55;;;;;;;31.92;14.93;;;;;;;10.47;69.08;102876.81;5010385;28;20042;-57
2022/04/29 09:31:20;;;;;;;26.48;14.65;;;;;;;10.58;69.91;102873.41;5005695;28;20472;-57
2022/04/29 09:33:54;;;;;;;30.00;15.30;;;;;;;10.52;69.80;102868.53;5021662;28;20042;-57
2022/04/29 09:36:21;;;;;;;26.70;15.07;;;;;;;10.58;68.93;102875.19;5011741;28;20034;-57
2022/04/29 09:41:57;;;;;;;25.10;14.20;;;;;;;10.69;69.28;102874.41;5017141;28;20048;-57
2022/04/29 09:44:36;;;;;;;28.42;15.77;;;;;;;10.81;70.14;102880.63;5012897;28;20115;-57
2022/04/29 09:47:11;;;;;;;24.60;14.68;;;;;;;10.49;70.47;102859.00;5012610;28;20045;-59
2022/04/29 09:49:36;;;;;;;28.52;15.98;;;;;;;10.54;70.42;102871.91;5011358;28;20121;-59
2022/04/29 09:52:02;;;;;;;26.52;15.23;;;;;;;10.49;69.27;102871.41;5013327;28;20104;-57
2022/04/29 09:54:30;;;;;;;26.98;14.73;;;;;;;10.50;68.32;102865.13;5010358;28;20022;-56
2022/04/29 09:57:13;;;;;;;25.83;14.90;;;;;;;10.42;69.56;102863.00;5014274;28;20100;-56
2022/04/29 09:59:44;;;;;;;29.15;14.95;;;;;;;10.39;69.42;102855.28;5011431;28;20025;-57
2022/04/29 10:02:12;;;;;;;30.67;14.80;;;;;;;10.40;68.27;102859.63;5010724;28;20552;-57
2022/04/29 10:04:40;;;;;;;28.27;14.80;;;;;;;10.30;69.52;102854.13;5012430;28;20026;-58
2022/04/29 10:07:08;;;;;;;27.42;15.48;;;;;;;10.38;70.97;102844.75;5013116;28;20594;-57
2022/04/29 10:09:35;;;;;;;25.20;14.95;;;;;;;10.40;70.94;102850.81;5010370;28;20030;-57
2022/04/29 10:12:03;;;;;;;24.98;15.07;;;;;;;10.31;69.90;102850.50;5001389;28;20109;-57
2022/04/29 10:14:30;;;;;;;26.83;14.93;;;;;;;10.42;69.86;102859.50;5010495;28;20057;-57
2022/04/29 10:22:50;;;;;;;26.15;14.43;;;;;;;10.38;71.54;102842.13;5003712;28;20112;-56
2022/04/29 10:25:16;;;;;;;31.25;14.93;;;;;;;10.47;69.70;102849.44;5007662;28;20033;-57
2022/04/29 10:27:43;;;;;;;29.75;16.10;;;;;;;10.55;69.89;102836.47;5009275;28;20116;-57
2022/04/29 10:30:09;;;;;;;27.45;14.52;;;;;;;10.65;68.52;102835.81;5004424;28;20042;-57
2022/04/29 10:33:02;;;;;;;26.10;15.40;;;;;;;10.78;69.08;102841.91;4999607;28;20030;-59
2022/04/29 10:35:39;;;;;;;26.30;15.07;;;;;;;10.77;69.15;102840.22;5005598;28;20045;-58
2022/04/29 10:38:34;;;;;;;25.67;15.20;;;;;;;10.84;68.85;102846.75;5002348;28;20033;-57
2022/04/29 10:41:15;;;;;;;24.05;14.90;;;;;;;10.93;68.00;102836.41;5002922;28;20069;-56
2022/04/29 10:44:01;;;;;;;25.52;14.93;;;;;;;10.95;67.66;102847.75;4998679;28;20030;-56
2022/04/29 10:46:32;;;;;;;23.30;14.20;;;;;;;10.94;67.75;102843.38;5006457;28;20082;-56
2022/04/29 10:49:17;;;;;;;26.23;14.55;;;;;;;10.96;67.93;102836.19;5002912;28;20428;-55
2022/04/29 10:51:52;;;;;;;27.17;13.52;;;;;;;10.85;66.86;102827.19;5011602;28;20053;-57
2022/04/29 10:54:32;;;;;;;25.58;14.70;;;;;;;10.96;67.08;102838.84;4998848;28;20029;-57
2022/04/29 10:57:04;;;;;;;27.05;14.10;;;;;;;10.99;67.79;102831.47;4997563;28;20018;-55
2022/04/29 10:59:48;;;;;;;22.73;13.93;;;;;;;11.13;67.43;102829.59;5000341;28;20041;-57
2022/04/29 11:02:25;;;;;;;25.27;13.70;;;;;;;11.10;67.51;102824.53;4998571;28;20103;-56
2022/04/29 11:04:51;;;;;;;27.05;13.80;;;;;;;11.12;67.35;102823.44;5000681;28;20088;-56
2022/04/29 11:07:37;;;;;;;25.85;14.00;;;;;;;11.12;68.66;102823.44;5008007;28;20033;-57
2022/04/29 11:10:04;;;;;;;27.27;13.68;;;;;;;11.01;68.22;102821.59;4997812;28;20026;-57
2022/04/29 11:12:33;;;;;;;27.73;14.07;;;;;;;11.04;68.60;102823.16;4998916;28;20542;-56
2022/04/29 11:15:09;;;;;;;23.73;13.30;;;;;;;11.03;67.09;102813.50;5004268;28;20034;-56
2022/04/29 11:17:36;;;;;;;22.73;13.18;;;;;;;11.00;67.59;102813.75;5002182;28;20031;-59
2022/04/29 11:20:24;;;;;;;24.52;13.77;;;;;;;11.11;67.95;102816.41;5026422;28;20051;-57
2022/04/29 11:26:00;;;;;;;31.23;13.38;;;;;;;11.22;66.28;102820.94;5013251;28;20495;-56
2022/04/29 11:28:26;;;;;;;26.40;12.98;;;;;;;11.27;66.66;102821.44;5008030;28;20026;-56
2022/04/29 11:31:01;;;;;;;24.05;12.65;;;;;;;11.28;68.14;102807.19;5008679;28;20075;-57
2022/04/29 11:33:26;;;;;;;23.85;12.75;;;;;;;11.36;66.60;102803.94;5001069;28;20109;-56
2022/04/29 11:36:02;;;;;;;25.02;13.25;;;;;;;11.38;66.92;102814.44;5010929;28;20131;-57
2022/04/29 11:38:39;;;;;;;27.67;12.57;;;;;;;11.57;66.94;102816.53;5007913;28;20026;-57
2022/04/29 11:41:05;;;;;;;27.75;12.70;;;;;;;11.68;65.57;102811.22;5010661;28;20587;-57
2022/04/29 11:43:30;;;;;;;24.88;12.77;;;;;;;11.78;66.51;102805.16;5010011;28;20118;-56
2022/04/29 11:46:07;;;;;;;27.10;13.07;;;;;;;11.92;65.66;102804.94;5012036;28;20038;-56